createdAt,value
2022-11-03T00:02:17.055Z,57.70
2022-11-03T00:04:43.834Z,60.60
2022-11-03T00:07:10.496Z,53.80
2022-11-03T00:09:37.119Z,53.90
2022-11-03T00:12:03.958Z,49.60
2022-11-03T00:14:31.335Z,47.20
2022-11-03T00:16:57.856Z,51.70
2022-11-03T00:19:24.506Z,48.10
2022-11-03T00:21:50.959Z,48.00
2022-11-03T00:24:17.478Z,52.20
2022-11-03T00:26:44.116Z,46.60
2022-11-03T00:29:14.384Z,48.50
2022-11-03T00:31:43.256Z,45.10
2022-11-03T00:34:11.042Z,49.90
2022-11-03T00:36:40.322Z,49.50
2022-11-03T00:39:08.597Z,48.40
2022-11-03T00:41:35.664Z,43.30
2022-11-03T00:44:02.298Z,44.30
2022-11-03T00:46:28.745Z,48.50
2022-11-03T00:48:55.193Z,49.90
2022-11-03T00:51:27.158Z,46.60
2022-11-03T00:53:56.217Z,51.90
2022-11-03T00:56:25.167Z,52.90
2022-11-03T00:58:54.458Z,55.40
2022-11-03T01:01:25.874Z,55.30
2022-11-03T01:03:55.422Z,54.40
2022-11-03T01:06:21.956Z,51.40
2022-11-03T01:08:48.497Z,49.70
2022-11-03T01:11:18.311Z,52.50
2022-11-03T01:13:44.748Z,48.90
2022-11-03T01:16:11.267Z,45.60
2022-11-03T01:18:37.680Z,45.30
2022-11-03T01:21:04.171Z,48.20
2022-11-03T01:23:30.621Z,44.40
2022-11-03T01:25:57.048Z,43.20
2022-11-03T01:28:23.462Z,49.40
2022-11-03T01:30:49.896Z,50.00
2022-11-03T01:33:16.439Z,45.20
2022-11-03T01:35:42.907Z,57.40
2022-11-03T01:38:09.411Z,51.50
2022-11-03T01:40:35.889Z,52.00
2022-11-03T01:43:19.844Z,49.20
2022-11-03T01:45:49.559Z,46.60
2022-11-03T01:48:18.789Z,46.10
2022-11-03T01:50:48.731Z,43.10
2022-11-03T01:53:16.788Z,57.10
2022-11-03T01:55:44.875Z,57.70
2022-11-03T01:58:31.658Z,52.90
2022-11-03T02:00:59.522Z,45.30
2022-11-03T02:03:28.730Z,55.40
2022-11-03T02:05:56.443Z,53.30
2022-11-03T02:08:34.711Z,47.90
2022-11-03T02:11:01.458Z,48.70
2022-11-03T02:13:27.929Z,44.50
2022-11-03T02:15:58.793Z,44.80
2022-11-03T02:18:31.967Z,48.70
2022-11-03T02:21:28.170Z,46.70
2022-11-03T02:24:09.210Z,57.20
2022-11-03T02:26:36.018Z,41.90
2022-11-03T02:29:02.800Z,50.00
2022-11-03T02:31:57.239Z,47.00
2022-11-03T02:34:43.649Z,42.40
2022-11-03T02:37:34.632Z,47.20
2022-11-03T02:40:15.547Z,48.10
2022-11-03T02:42:46.897Z,44.70
2022-11-03T02:45:17.842Z,49.10
2022-11-03T02:47:45.533Z,77.90
2022-11-03T02:50:12.668Z,47.20
2022-11-03T02:52:42.628Z,52.70
2022-11-03T02:55:09.784Z,44.80
2022-11-03T02:57:43.107Z,50.00
2022-11-03T03:00:10.829Z,46.20
2022-11-03T03:02:54.029Z,54.20
2022-11-03T03:05:24.628Z,55.50
2022-11-03T03:07:55.579Z,40.00
2022-11-03T03:10:26.484Z,55.70
2022-11-03T03:12:56.439Z,41.80
2022-11-03T03:15:39.706Z,54.90
2022-11-03T03:18:34.024Z,61.60
2022-11-03T03:21:06.507Z,55.10
2022-11-03T03:23:39.423Z,56.00
2022-11-03T03:26:12.699Z,62.30
2022-11-03T03:29:15.536Z,58.90
2022-11-03T03:31:48.371Z,55.40
2022-11-03T03:34:34.049Z,49.60
2022-11-03T03:37:02.669Z,49.90
2022-11-03T03:39:34.086Z,51.50
2022-11-03T03:44:30.678Z,53.80
2022-11-03T03:47:06.069Z,51.90
2022-11-03T03:49:32.870Z,51.20
2022-11-03T03:51:59.613Z,53.30
2022-11-03T03:54:26.149Z,61.00
2022-11-03T03:57:02.940Z,56.30
2022-11-03T03:59:30.192Z,52.30
2022-11-03T04:01:57.379Z,46.20
2022-11-03T04:04:24.201Z,48.20
2022-11-03T04:06:50.895Z,47.80
2022-11-03T04:09:17.383Z,51.70
2022-11-03T04:11:43.818Z,45.90
2022-11-03T04:14:10.360Z,53.60
2022-11-03T04:16:36.793Z,47.30
2022-11-03T04:19:03.216Z,50.10
2022-11-03T04:21:29.787Z,62.50
2022-11-03T04:23:56.525Z,51.50
2022-11-03T04:26:23.375Z,58.50
2022-11-03T04:28:53.046Z,54.50
2022-11-03T04:31:21.091Z,57.10
2022-11-03T04:33:48.327Z,54.50
2022-11-03T04:36:25.483Z,58.40
2022-11-03T04:38:52.915Z,52.90
2022-11-03T04:41:31.804Z,59.10
2022-11-03T04:43:58.394Z,56.50
2022-11-03T04:46:27.762Z,52.60
2022-11-03T04:48:58.182Z,58.00
2022-11-03T04:51:27.916Z,58.10
2022-11-03T04:53:58.589Z,58.60
2022-11-03T04:56:25.897Z,43.90
2022-11-03T04:58:53.591Z,60.00
2022-11-03T05:01:24.546Z,58.10
2022-11-03T05:03:54.552Z,60.80
2022-11-03T05:06:28.085Z,49.90
2022-11-03T05:09:05.670Z,57.00
2022-11-03T05:11:38.983Z,56.80
2022-11-03T05:14:24.322Z,53.90
2022-11-03T05:16:53.262Z,52.20
2022-11-03T05:19:42.794Z,45.50
2022-11-03T05:22:16.602Z,45.30
2022-11-03T05:24:44.064Z,48.80
2022-11-03T05:27:18.751Z,47.40
2022-11-03T05:29:46.373Z,45.30
2022-11-03T05:32:18.893Z,49.70
2022-11-03T05:34:51.237Z,52.10
2022-11-03T05:37:35.314Z,56.10
2022-11-03T05:40:20.776Z,54.50
2022-11-03T05:42:53.154Z,67.70
2022-11-03T05:45:26.762Z,58.00
2022-11-03T05:47:55.408Z,60.70
2022-11-03T05:50:27.397Z,60.50
2022-11-03T05:53:16.983Z,47.80
2022-11-03T05:55:44.029Z,47.10
2022-11-03T05:58:25.730Z,53.80
2022-11-03T06:00:53.080Z,49.60
2022-11-03T06:03:27.863Z,47.80
2022-11-03T06:05:55.896Z,50.30
2022-11-03T06:08:27.857Z,48.70
2022-11-03T06:10:58.478Z,49.10
2022-11-03T06:13:29.878Z,49.50
2022-11-03T06:18:34.665Z,54.40
2022-11-03T06:21:19.274Z,46.70
2022-11-03T06:23:45.801Z,41.30
2022-11-03T06:26:19.227Z,40.20
2022-11-03T06:28:47.947Z,38.80
2022-11-03T06:31:23.175Z,35.60
2022-11-03T06:33:52.351Z,35.90
2022-11-03T06:36:21.485Z,31.70
2022-11-03T06:38:52.901Z,31.20
2022-11-03T06:43:53.204Z,33.30
2022-11-03T06:46:23.276Z,29.40
2022-11-03T06:48:51.047Z,35.00
2022-11-03T06:51:21.815Z,29.80
2022-11-03T06:53:50.292Z,25.60
2022-11-03T06:56:21.688Z,34.70
2022-11-03T06:58:49.759Z,28.80
2022-11-03T07:01:20.985Z,28.60
2022-11-03T07:03:51.043Z,28.30
2022-11-03T07:06:28.980Z,35.80
2022-11-03T07:09:07.260Z,29.10
2022-11-03T07:11:45.125Z,27.10
2022-11-03T07:14:27.592Z,35.80
2022-11-03T07:17:03.657Z,34.60
2022-11-03T07:19:34.688Z,34.30
2022-11-03T07:22:04.657Z,32.10
2022-11-03T07:24:41.537Z,32.10
2022-11-03T07:27:08.039Z,32.70
2022-11-03T07:29:34.726Z,36.90
2022-11-03T07:32:01.207Z,27.20
2022-11-03T07:34:31.821Z,28.70
2022-11-03T07:36:59.105Z,30.20
2022-11-03T07:39:32.401Z,29.50
2022-11-03T07:41:59.310Z,32.80
2022-11-03T07:44:25.743Z,24.50
2022-11-03T07:46:52.313Z,24.30
2022-11-03T07:49:27.459Z,31.10
2022-11-03T07:51:56.184Z,26.30
2022-11-03T07:54:28.402Z,25.30
2022-11-03T07:57:00.270Z,22.60
2022-11-03T07:59:44.289Z,23.90
2022-11-03T08:02:31.634Z,22.20
2022-11-03T08:04:58.836Z,22.20
2022-11-03T08:07:25.801Z,21.00
2022-11-03T08:09:52.815Z,21.70
2022-11-03T08:12:19.294Z,24.50
2022-11-03T08:14:46.200Z,21.70
2022-11-03T08:17:13.047Z,20.70
2022-11-03T08:19:39.586Z,25.50
2022-11-03T08:22:06.442Z,36.10
2022-11-03T08:24:32.999Z,31.80
2022-11-03T08:26:59.572Z,52.40
2022-11-03T08:29:26.035Z,53.00
2022-11-03T08:31:53.315Z,34.80
2022-11-03T08:34:19.859Z,37.30
2022-11-03T08:36:47.333Z,26.70
2022-11-03T08:39:13.827Z,19.00
2022-11-03T08:41:40.304Z,18.80
2022-11-03T08:44:06.838Z,18.30
2022-11-03T08:46:33.287Z,15.00
2022-11-03T08:48:59.817Z,16.70
2022-11-03T08:51:26.363Z,19.60
2022-11-03T08:53:52.814Z,16.50
2022-11-03T08:56:22.392Z,17.80
2022-11-03T08:58:50.027Z,19.30
2022-11-03T09:01:16.570Z,15.20
2022-11-03T09:03:43.575Z,17.10
2022-11-03T09:06:10.533Z,16.00
2022-11-03T09:11:23.867Z,16.50
2022-11-03T09:13:50.830Z,14.20
2022-11-03T09:16:17.417Z,18.90
2022-11-03T09:18:43.995Z,19.90
2022-11-03T09:21:10.645Z,15.10
2022-11-03T09:23:37.064Z,17.40
2022-11-03T09:26:03.523Z,19.40
2022-11-03T09:28:30.012Z,15.10
2022-11-03T09:30:56.497Z,12.20
2022-11-03T09:33:22.965Z,16.90
2022-11-03T09:35:49.641Z,15.40
2022-11-03T09:38:16.063Z,16.60
2022-11-03T09:40:42.636Z,13.60
2022-11-03T09:43:09.924Z,16.70
2022-11-03T09:45:38.659Z,13.20
2022-11-03T09:48:06.107Z,13.10
2022-11-03T09:50:33.124Z,12.60
2022-11-03T09:52:59.568Z,11.10
2022-11-03T09:55:27.471Z,13.20
2022-11-03T09:58:02.609Z,18.00
2022-11-03T10:00:29.328Z,16.10
2022-11-03T10:02:56.176Z,15.40
2022-11-03T10:05:27.784Z,20.10
2022-11-03T10:08:11.683Z,15.60
2022-11-03T10:10:40.172Z,12.90
2022-11-03T10:13:06.798Z,13.70
2022-11-03T10:15:33.525Z,15.30
2022-11-03T10:18:01.073Z,12.70
2022-11-03T10:20:29.198Z,12.10
2022-11-03T10:22:55.727Z,11.40
2022-11-03T10:25:42.818Z,7.30
2022-11-03T10:28:16.920Z,13.10
2022-11-03T10:31:16.553Z,11.50
2022-11-03T10:33:54.646Z,8.60
2022-11-03T10:36:29.998Z,12.30
2022-11-03T10:38:57.214Z,11.90
2022-11-03T10:41:26.232Z,10.20
2022-11-03T10:44:10.976Z,11.90
2022-11-03T10:46:56.040Z,10.70
2022-11-03T10:49:22.910Z,12.30
2022-11-03T10:51:54.258Z,10.10
2022-11-03T10:54:23.355Z,13.50
2022-11-03T10:56:51.274Z,10.90
2022-11-03T10:59:21.250Z,8.80
2022-11-03T11:01:48.617Z,11.20
2022-11-03T11:04:16.903Z,9.70
2022-11-03T11:06:43.745Z,6.80
2022-11-03T11:09:14.252Z,12.30
2022-11-03T11:12:16.243Z,10.20
2022-11-03T11:14:57.835Z,10.00
2022-11-03T11:17:47.975Z,9.00
2022-11-03T11:20:35.564Z,9.20
2022-11-03T11:23:26.845Z,10.30
2022-11-03T11:26:11.751Z,6.70
2022-11-03T11:28:40.258Z,11.20
2022-11-03T11:31:30.799Z,8.50
2022-11-03T11:34:09.484Z,8.40
2022-11-03T11:36:43.488Z,6.30
2022-11-03T11:39:28.330Z,6.70
2022-11-03T11:42:08.398Z,7.20
2022-11-03T11:44:40.520Z,9.00
2022-11-03T11:47:25.804Z,7.30
2022-11-03T11:50:07.405Z,8.70
2022-11-03T11:52:40.393Z,8.00
2022-11-03T11:55:22.253Z,7.90
2022-11-03T11:57:49.232Z,8.20
2022-11-03T12:00:19.461Z,6.30
2022-11-03T12:02:47.499Z,8.90
2022-11-03T12:05:40.463Z,8.20
2022-11-03T12:08:24.066Z,7.00
2022-11-03T12:10:55.856Z,6.80
2022-11-03T12:13:46.783Z,6.40
2022-11-03T12:16:28.690Z,5.20
2022-11-03T12:18:55.942Z,5.50
2022-11-03T12:21:45.627Z,7.70
2022-11-03T12:24:36.244Z,6.40
2022-11-03T12:27:16.915Z,5.00
2022-11-03T12:29:43.359Z,9.00
2022-11-03T12:32:25.592Z,8.20
2022-11-03T12:34:56.757Z,8.00
2022-11-03T12:37:23.641Z,6.60
2022-11-03T12:39:50.080Z,5.90
2022-11-03T12:42:16.828Z,5.80
2022-11-03T12:44:43.996Z,7.10
2022-11-03T12:47:10.646Z,10.20
2022-11-03T12:49:37.159Z,6.70
2022-11-03T12:52:07.764Z,7.70
2022-11-03T12:54:34.751Z,6.90
2022-11-03T12:57:01.297Z,4.80
2022-11-03T12:59:27.743Z,9.10
2022-11-03T13:01:54.253Z,5.80
2022-11-03T13:04:21.021Z,7.20
2022-11-03T13:06:47.490Z,4.80
2022-11-03T13:09:14.201Z,8.50
2022-11-03T13:11:41.046Z,7.10
2022-11-03T13:14:07.587Z,7.00
2022-11-03T13:16:34.125Z,6.40
2022-11-03T13:19:00.666Z,7.00
2022-11-03T13:21:27.204Z,8.00
2022-11-03T13:23:53.763Z,7.80
2022-11-03T13:26:20.203Z,5.40
2022-11-03T13:28:46.718Z,5.10
2022-11-03T13:31:13.459Z,7.70
2022-11-03T13:33:40.000Z,8.00
2022-11-03T13:36:06.785Z,6.40
2022-11-03T13:38:33.394Z,7.20
2022-11-03T13:41:03.805Z,6.70
2022-11-03T13:43:34.867Z,7.20
2022-11-03T13:46:01.400Z,7.20
2022-11-03T13:51:15.461Z,5.80
2022-11-03T13:56:28.741Z,5.80
2022-11-03T14:01:42.118Z,9.10
2022-11-03T14:06:55.985Z,6.20
2022-11-03T14:09:25.111Z,7.40
2022-11-03T14:11:52.011Z,8.40
2022-11-03T14:14:18.544Z,5.20
2022-11-03T14:16:45.126Z,7.50
2022-11-03T14:19:11.747Z,7.40
2022-11-03T14:21:38.203Z,9.80
2022-11-03T14:24:05.531Z,6.40
2022-11-03T14:26:42.384Z,5.80
2022-11-03T14:29:10.517Z,10.20
2022-11-03T14:31:37.068Z,7.70
2022-11-03T14:34:03.986Z,7.20
2022-11-03T14:36:30.517Z,6.90
2022-11-03T14:38:57.160Z,8.90
2022-11-03T14:41:23.693Z,8.30
2022-11-03T14:43:50.302Z,9.30
2022-11-03T14:46:16.873Z,11.60
2022-11-03T14:48:43.620Z,11.20
2022-11-03T14:51:10.159Z,9.50
2022-11-03T14:53:36.597Z,10.60
2022-11-03T14:56:03.309Z,11.70
2022-11-03T14:58:29.803Z,11.80
2022-11-03T15:00:56.481Z,12.20
2022-11-03T15:03:22.963Z,14.30
2022-11-03T15:05:49.507Z,16.60
2022-11-03T15:08:18.103Z,13.70
2022-11-03T15:10:44.632Z,19.80
2022-11-03T15:13:11.171Z,21.30
2022-11-03T15:15:37.911Z,38.30
2022-11-03T15:18:04.699Z,44.30
2022-11-03T15:20:31.613Z,77.80
2022-11-03T15:25:44.754Z,84.80
2022-11-03T15:28:11.297Z,80.90
2022-11-03T15:30:38.455Z,86.90
2022-11-03T15:33:05.005Z,79.20
2022-11-03T15:35:31.890Z,62.30
2022-11-03T15:37:58.475Z,58.10
2022-11-03T15:40:26.081Z,57.20
2022-11-03T15:42:52.886Z,43.70
2022-11-03T15:45:19.549Z,39.10
2022-11-03T15:47:45.984Z,34.70
2022-11-03T15:50:13.017Z,27.70
2022-11-03T15:52:39.626Z,27.40
2022-11-03T15:55:07.261Z,25.20
2022-11-03T15:57:34.236Z,27.60
2022-11-03T16:00:01.014Z,27.40
2022-11-03T16:02:40.986Z,27.40
2022-11-03T16:05:09.357Z,24.30
2022-11-03T16:07:35.994Z,27.80
2022-11-03T16:10:02.761Z,27.60
2022-11-03T16:12:30.074Z,23.50
2022-11-03T16:14:56.939Z,25.80
2022-11-03T16:17:23.675Z,23.80
2022-11-03T16:19:51.034Z,26.70
2022-11-03T16:22:17.586Z,30.10
2022-11-03T16:24:44.119Z,40.10
2022-11-03T16:27:10.601Z,46.30
2022-11-03T16:29:37.194Z,61.00
2022-11-03T16:32:03.748Z,86.40
2022-11-03T16:34:30.173Z,104.00
2022-11-03T16:36:56.697Z,194.10
2022-11-03T16:39:23.148Z,191.20
2022-11-03T16:41:49.789Z,173.20
2022-11-03T16:44:16.346Z,174.90
2022-11-03T16:46:42.868Z,153.10
2022-11-03T16:49:09.295Z,255.90
2022-11-03T16:51:35.787Z,260.00
2022-11-03T16:54:02.278Z,296.60
2022-11-03T16:56:28.816Z,158.90
2022-11-03T16:58:55.357Z,216.60
2022-11-03T17:01:22.023Z,196.50
2022-11-03T17:03:48.589Z,158.60
2022-11-03T17:06:15.132Z,212.20
2022-11-03T17:08:56.960Z,188.30
2022-11-03T17:11:23.515Z,146.30
2022-11-03T17:13:49.978Z,160.50
2022-11-03T17:16:16.438Z,170.30
2022-11-03T17:18:42.926Z,119.50
2022-11-03T17:21:09.362Z,110.50
2022-11-03T17:23:35.800Z,117.00
2022-11-03T17:26:03.226Z,96.80
2022-11-03T17:28:30.015Z,135.70
2022-11-03T17:30:56.546Z,117.20
2022-11-03T17:33:23.082Z,111.00
2022-11-03T17:35:49.622Z,125.70
2022-11-03T17:38:17.611Z,142.80
2022-11-03T17:40:46.635Z,175.50
2022-11-03T17:43:27.797Z,162.70
2022-11-03T17:45:54.779Z,193.60
2022-11-03T17:48:21.465Z,152.50
2022-11-03T17:50:54.060Z,144.80
2022-11-03T17:53:23.451Z,183.10
2022-11-03T17:56:09.031Z,139.80
2022-11-03T17:58:44.876Z,138.30
2022-11-03T18:01:20.815Z,164.40
2022-11-03T18:03:47.392Z,165.10
2022-11-03T18:06:18.761Z,159.20
2022-11-03T18:08:46.652Z,155.60
2022-11-03T18:11:16.436Z,159.90
2022-11-03T18:13:42.922Z,157.40
2022-11-03T18:16:12.503Z,169.10
2022-11-03T18:18:44.044Z,158.00
2022-11-03T18:21:17.947Z,154.70
2022-11-03T18:23:45.104Z,161.30
2022-11-03T18:26:29.460Z,162.30
2022-11-03T18:28:55.947Z,143.00
2022-11-03T18:31:36.279Z,139.00
2022-11-03T18:34:12.252Z,158.90
2022-11-03T18:36:38.766Z,159.10
2022-11-03T18:39:05.414Z,174.90
2022-11-03T18:41:31.951Z,148.80
2022-11-03T18:43:58.495Z,149.10
2022-11-03T18:46:25.033Z,143.20
2022-11-03T18:48:51.574Z,134.10
2022-11-03T18:51:18.321Z,130.20
2022-11-03T18:53:45.161Z,135.90
2022-11-03T18:56:13.545Z,133.00
2022-11-03T18:58:40.187Z,122.70
2022-11-03T19:01:06.763Z,118.20
2022-11-03T19:03:33.260Z,119.50
2022-11-03T19:05:59.804Z,139.90
2022-11-03T19:08:29.978Z,128.60
2022-11-03T19:10:57.492Z,141.40
2022-11-03T19:13:28.158Z,152.40
2022-11-03T19:15:59.602Z,149.10
2022-11-03T19:20:56.645Z,183.10
2022-11-03T19:23:23.181Z,149.70
2022-11-03T19:25:54.456Z,160.70
2022-11-03T19:28:21.689Z,144.70
2022-11-03T19:30:48.723Z,167.80
2022-11-03T19:33:20.914Z,173.60
2022-11-03T19:35:48.477Z,148.60
2022-11-03T19:38:17.978Z,150.30
2022-11-03T19:40:45.966Z,151.00
2022-11-03T19:43:12.610Z,136.40
2022-11-03T19:45:39.262Z,147.30
2022-11-03T19:50:52.811Z,132.20
2022-11-03T19:53:23.742Z,133.30
2022-11-03T19:55:50.611Z,154.40
2022-11-03T19:58:22.308Z,148.50
2022-11-03T20:00:50.540Z,141.10
2022-11-03T20:03:17.497Z,146.00
2022-11-03T20:05:49.268Z,142.10
2022-11-03T20:08:20.157Z,149.30
2022-11-03T20:10:47.221Z,137.30
2022-11-03T20:13:20.720Z,139.00
2022-11-03T20:15:47.443Z,132.10
2022-11-03T20:18:15.176Z,147.20
2022-11-03T20:20:43.702Z,131.70
2022-11-03T20:23:27.618Z,134.20
2022-11-03T20:25:54.777Z,139.00
2022-11-03T20:28:26.560Z,138.50
2022-11-03T20:30:53.790Z,134.50
2022-11-03T20:33:22.716Z,137.90
2022-11-03T20:35:51.377Z,145.20
2022-11-03T20:38:19.550Z,145.30
2022-11-03T20:40:46.938Z,143.70
2022-11-03T20:43:24.863Z,122.10
2022-11-03T20:45:51.352Z,108.60
2022-11-03T20:48:17.911Z,104.40
2022-11-03T20:50:44.675Z,105.10
2022-11-03T20:53:16.907Z,104.90
2022-11-03T20:55:43.789Z,101.40
2022-11-03T20:58:16.052Z,93.50
2022-11-03T21:00:44.109Z,89.50
2022-11-03T21:03:37.815Z,84.90
2022-11-03T21:06:12.242Z,83.10
2022-11-03T21:08:39.163Z,102.00
2022-11-03T21:11:26.314Z,114.70
2022-11-03T21:14:16.275Z,124.40
2022-11-03T21:16:42.841Z,109.90
2022-11-03T21:19:24.586Z,111.80
2022-11-03T21:21:51.050Z,103.20
2022-11-03T21:24:17.504Z,96.60
2022-11-03T21:26:44.081Z,98.70
2022-11-03T21:29:10.622Z,88.90
2022-11-03T21:31:37.069Z,95.10
2022-11-03T21:34:03.527Z,82.10
2022-11-03T21:36:30.196Z,85.40
2022-11-03T21:38:56.734Z,80.90
2022-11-03T21:41:23.203Z,80.80
2022-11-03T21:43:49.621Z,80.60
2022-11-03T21:46:16.044Z,84.30
2022-11-03T21:48:42.564Z,84.40
2022-11-03T21:51:09.130Z,72.70
2022-11-03T21:53:35.672Z,66.90
2022-11-03T21:56:02.217Z,80.40
2022-11-03T21:58:28.645Z,80.20
2022-11-03T22:00:55.265Z,85.80
2022-11-03T22:03:21.937Z,90.60
2022-11-03T22:05:48.484Z,81.30
2022-11-03T22:08:14.969Z,93.30
2022-11-03T22:10:41.463Z,76.60
2022-11-03T22:13:08.366Z,83.00
2022-11-03T22:15:35.162Z,73.60
2022-11-03T22:18:03.340Z,74.20
2022-11-03T22:20:29.879Z,84.60
2022-11-03T22:23:00.515Z,71.70
2022-11-03T22:25:27.066Z,77.50
2022-11-03T22:27:53.804Z,79.50
2022-11-03T22:30:20.377Z,84.60
2022-11-03T22:32:51.594Z,76.90
2022-11-03T22:35:18.235Z,75.30
2022-11-03T22:37:45.086Z,85.80
2022-11-03T22:40:11.626Z,79.20
2022-11-03T22:42:38.215Z,83.80
2022-11-03T22:45:05.113Z,76.10
2022-11-03T22:47:31.566Z,77.40
2022-11-03T22:49:57.987Z,61.90
2022-11-03T22:52:24.500Z,61.30
2022-11-03T22:54:50.953Z,60.90
2022-11-03T22:57:17.567Z,58.70
2022-11-03T22:59:44.057Z,59.40
2022-11-03T23:02:10.671Z,71.30
2022-11-03T23:04:37.236Z,69.50
2022-11-03T23:07:03.651Z,66.90
2022-11-03T23:09:30.218Z,65.30
2022-11-03T23:11:56.772Z,70.60
2022-11-03T23:14:23.297Z,72.30
2022-11-03T23:16:49.941Z,63.50
2022-11-03T23:19:16.588Z,61.30
2022-11-03T23:21:48.266Z,68.50
2022-11-03T23:24:15.207Z,68.00
2022-11-03T23:26:42.894Z,63.30
2022-11-03T23:29:10.661Z,78.50
2022-11-03T23:31:37.662Z,65.00
2022-11-03T23:34:05.165Z,74.50
2022-11-03T23:36:32.120Z,68.20
2022-11-03T23:39:00.191Z,58.10
2022-11-03T23:41:28.388Z,65.50
2022-11-03T23:43:55.523Z,61.10
2022-11-03T23:46:24.780Z,61.70
2022-11-03T23:48:52.815Z,63.20
2022-11-03T23:51:25.262Z,53.30
2022-11-03T23:53:52.829Z,56.50
2022-11-03T23:56:24.970Z,63.20
2022-11-03T23:58:51.799Z,64.20
